createdAt,value
2019-01-30T00:01:25.074Z,89.40
2019-01-30T00:03:53.635Z,89.26
2019-01-30T00:06:22.214Z,88.68
2019-01-30T00:08:50.762Z,89.54
2019-01-30T00:11:19.714Z,89.80
2019-01-30T00:13:48.301Z,89.79
2019-01-30T00:16:16.874Z,89.93
2019-01-30T00:18:45.482Z,89.34
2019-01-30T00:21:14.060Z,89.98
2019-01-30T00:23:42.634Z,89.24
2019-01-30T00:26:11.529Z,89.15
2019-01-30T00:28:40.099Z,88.91
2019-01-30T00:31:08.667Z,89.21
2019-01-30T00:33:37.261Z,89.06
2019-01-30T00:36:05.850Z,89.43
2019-01-30T00:38:34.414Z,89.80
2019-01-30T00:41:02.971Z,89.82
2019-01-30T00:43:31.572Z,89.73
2019-01-30T00:46:00.129Z,89.97
2019-01-30T00:48:28.717Z,89.97
2019-01-30T00:50:57.319Z,89.69
2019-01-30T00:53:25.880Z,89.82
2019-01-30T00:55:54.442Z,89.60
2019-01-30T00:58:23.022Z,89.18
2019-01-30T01:00:51.614Z,89.19
2019-01-30T01:03:20.293Z,89.37
2019-01-30T01:05:48.864Z,89.41
2019-01-30T01:08:17.445Z,89.68
2019-01-30T01:10:46.043Z,89.15
2019-01-30T01:13:14.755Z,89.46
2019-01-30T01:15:43.286Z,88.65
2019-01-30T01:18:11.879Z,88.38
2019-01-30T01:20:40.497Z,89.26
2019-01-30T01:23:09.067Z,89.35
2019-01-30T01:25:37.659Z,89.22
2019-01-30T01:28:06.222Z,89.24
2019-01-30T01:30:34.789Z,89.43
2019-01-30T01:33:03.383Z,89.44
2019-01-30T01:35:31.991Z,89.12
2019-01-30T01:38:00.562Z,89.11
2019-01-30T01:40:29.133Z,89.50
2019-01-30T01:42:57.744Z,89.65
2019-01-30T01:45:26.333Z,89.30
2019-01-30T01:47:54.889Z,89.15
2019-01-30T01:50:23.506Z,89.13
2019-01-30T01:52:52.087Z,89.15
2019-01-30T01:55:20.650Z,89.09
2019-01-30T01:57:49.249Z,88.97
2019-01-30T02:00:19.646Z,89.16
2019-01-30T02:02:48.324Z,89.28
2019-01-30T02:05:18.805Z,89.04
2019-01-30T02:07:47.368Z,89.18
2019-01-30T02:10:17.879Z,89.12
2019-01-30T02:12:46.457Z,88.80
2019-01-30T02:15:17.004Z,88.94
2019-01-30T02:20:30.570Z,88.51
2019-01-30T02:22:59.543Z,88.43
2019-01-30T02:25:29.219Z,88.32
2019-01-30T02:27:57.854Z,88.32
2019-01-30T02:30:28.698Z,88.56
2019-01-30T02:32:58.438Z,88.29
2019-01-30T02:35:26.993Z,88.00
2019-01-30T02:37:56.318Z,88.97
2019-01-30T02:40:25.668Z,88.16
2019-01-30T02:42:55.213Z,88.71
2019-01-30T02:45:25.459Z,88.78
2019-01-30T02:47:54.355Z,89.12
2019-01-30T02:50:23.370Z,88.58
2019-01-30T02:52:52.253Z,88.80
2019-01-30T02:55:21.589Z,88.99
2019-01-30T02:57:50.850Z,88.87
2019-01-30T03:00:23.855Z,88.88
2019-01-30T03:02:51.637Z,88.46
2019-01-30T03:05:20.148Z,88.58
2019-01-30T03:07:48.834Z,88.99
2019-01-30T03:10:18.041Z,88.68
2019-01-30T03:12:46.770Z,88.77
2019-01-30T03:15:16.645Z,88.72
2019-01-30T03:17:45.229Z,88.16
2019-01-30T03:20:16.421Z,87.63
2019-01-30T03:22:45.081Z,87.92
2019-01-30T03:25:14.477Z,88.18
2019-01-30T03:27:43.383Z,87.64
2019-01-30T03:30:18.078Z,88.04
2019-01-30T03:32:47.294Z,88.26
2019-01-30T03:35:16.229Z,87.85
2019-01-30T03:37:44.809Z,87.96
2019-01-30T03:40:15.362Z,87.83
2019-01-30T03:42:44.013Z,88.60
2019-01-30T03:45:13.160Z,88.47
2019-01-30T03:47:42.901Z,88.19
2019-01-30T03:50:12.544Z,87.78
2019-01-30T03:52:41.097Z,88.01
2019-01-30T03:55:10.908Z,88.08
2019-01-30T03:57:40.225Z,88.54
2019-01-30T04:00:13.021Z,88.48
2019-01-30T04:02:42.869Z,88.29
2019-01-30T04:05:12.514Z,88.60
2019-01-30T04:07:41.093Z,88.21
2019-01-30T04:10:12.980Z,88.30
2019-01-30T04:12:42.634Z,88.26
2019-01-30T04:15:12.309Z,88.37
2019-01-30T04:17:41.274Z,88.29
2019-01-30T04:20:11.935Z,88.34
2019-01-30T04:22:41.610Z,88.12
2019-01-30T04:25:11.393Z,87.85
2019-01-30T04:27:40.799Z,87.90
2019-01-30T04:30:16.690Z,88.09
2019-01-30T04:32:46.291Z,87.91
2019-01-30T04:35:14.932Z,88.34
2019-01-30T04:37:44.600Z,88.31
2019-01-30T04:40:15.984Z,87.95
2019-01-30T04:42:45.618Z,88.27
2019-01-30T04:45:17.893Z,88.12
2019-01-30T04:47:47.187Z,88.48
2019-01-30T04:50:17.409Z,88.29
2019-01-30T04:52:46.915Z,88.04
2019-01-30T04:55:18.271Z,88.35
2019-01-30T04:57:47.981Z,88.40
2019-01-30T05:00:19.929Z,87.97
2019-01-30T05:02:49.991Z,87.60
2019-01-30T05:05:19.699Z,87.58
2019-01-30T05:07:49.386Z,87.81
2019-01-30T05:10:18.266Z,87.46
2019-01-30T05:12:47.529Z,87.53
2019-01-30T05:15:18.519Z,87.18
2019-01-30T05:17:48.267Z,87.24
2019-01-30T05:20:18.882Z,87.79
2019-01-30T05:22:48.759Z,87.53
2019-01-30T05:25:17.961Z,87.65
2019-01-30T05:27:47.220Z,87.58
2019-01-30T05:30:23.899Z,87.69
2019-01-30T05:32:53.430Z,87.66
2019-01-30T05:35:22.689Z,87.79
2019-01-30T05:37:52.082Z,87.33
2019-01-30T05:40:21.902Z,87.99
2019-01-30T05:42:51.199Z,87.79
2019-01-30T05:45:20.617Z,87.86
2019-01-30T05:47:49.594Z,87.62
2019-01-30T05:50:18.130Z,87.65
2019-01-30T05:52:46.812Z,87.46
2019-01-30T05:55:16.048Z,87.26
2019-01-30T05:57:45.193Z,87.39
2019-01-30T06:00:17.726Z,87.27
2019-01-30T06:02:46.336Z,87.50
2019-01-30T06:05:14.876Z,87.68
2019-01-30T06:07:43.453Z,87.32
2019-01-30T06:10:12.311Z,87.35
2019-01-30T06:12:40.890Z,87.14
2019-01-30T06:15:10.368Z,87.62
2019-01-30T06:17:38.915Z,87.53
2019-01-30T06:20:10.638Z,87.37
2019-01-30T06:22:39.205Z,87.44
2019-01-30T06:25:08.502Z,87.28
2019-01-30T06:27:37.083Z,87.62
2019-01-30T06:30:07.624Z,87.92
2019-01-30T06:32:36.166Z,87.51
2019-01-30T06:35:05.570Z,87.22
2019-01-30T06:37:59.300Z,87.08
2019-01-30T06:40:30.146Z,87.11
2019-01-30T06:42:58.700Z,86.92
2019-01-30T06:45:27.282Z,86.85
2019-01-30T06:47:55.848Z,86.61
2019-01-30T06:50:24.451Z,86.59
2019-01-30T06:52:52.995Z,86.35
2019-01-30T06:55:21.579Z,85.99
2019-01-30T06:57:50.149Z,86.08
2019-01-30T07:00:21.569Z,86.18
2019-01-30T07:02:50.164Z,86.35
2019-01-30T07:05:18.719Z,86.43
2019-01-30T07:07:47.278Z,86.50
2019-01-30T07:10:19.270Z,86.44
2019-01-30T07:12:55.228Z,86.14
2019-01-30T07:15:24.057Z,86.54
2019-01-30T07:17:52.675Z,85.96
2019-01-30T07:20:21.641Z,85.94
2019-01-30T07:22:50.253Z,85.51
2019-01-30T07:25:19.589Z,85.10
2019-01-30T07:27:51.839Z,85.60
2019-01-30T07:30:31.836Z,85.13
2019-01-30T07:33:00.390Z,85.39
2019-01-30T07:35:28.945Z,85.61
2019-01-30T07:37:58.755Z,85.60
2019-01-30T07:40:27.576Z,85.29
2019-01-30T07:42:56.561Z,85.29
2019-01-30T07:45:26.804Z,84.70
2019-01-30T07:47:56.678Z,84.59
2019-01-30T07:50:25.614Z,84.38
2019-01-30T07:52:54.596Z,85.19
2019-01-30T07:55:24.255Z,84.18
2019-01-30T07:57:53.904Z,83.70
2019-01-30T08:00:25.672Z,83.26
2019-01-30T08:03:16.303Z,83.67
2019-01-30T08:05:45.481Z,83.52
2019-01-30T08:08:14.129Z,83.61
2019-01-30T08:10:43.871Z,83.80
2019-01-30T08:13:13.117Z,83.43
2019-01-30T08:15:42.886Z,83.67
2019-01-30T08:18:12.272Z,83.44
2019-01-30T08:20:42.403Z,83.85
2019-01-30T08:23:12.085Z,84.27
2019-01-30T08:25:41.904Z,83.40
2019-01-30T08:28:10.923Z,81.42
2019-01-30T08:30:39.548Z,82.65
2019-01-30T08:33:08.219Z,82.79
2019-01-30T08:35:37.335Z,83.49
2019-01-30T08:38:06.877Z,81.02
2019-01-30T08:40:36.068Z,82.46
2019-01-30T08:43:05.028Z,82.88
2019-01-30T08:45:34.691Z,83.27
2019-01-30T08:48:04.428Z,81.52
2019-01-30T08:50:33.744Z,81.93
2019-01-30T08:53:03.438Z,80.78
2019-01-30T08:55:32.747Z,80.76
2019-01-30T08:58:01.727Z,81.60
2019-01-30T09:00:31.457Z,81.55
2019-01-30T09:03:00.828Z,83.24
2019-01-30T09:05:30.643Z,83.56
2019-01-30T09:08:00.530Z,80.82
2019-01-30T09:10:29.265Z,79.04
2019-01-30T09:13:00.302Z,80.36
2019-01-30T09:15:30.414Z,81.87
2019-01-30T09:18:00.117Z,81.03
2019-01-30T09:20:28.938Z,80.97
2019-01-30T09:22:57.593Z,79.96
2019-01-30T09:25:28.448Z,78.79
2019-01-30T09:27:57.595Z,80.96
2019-01-30T09:30:32.236Z,81.02
2019-01-30T09:33:02.386Z,78.57
2019-01-30T09:35:32.093Z,79.80
2019-01-30T09:38:01.813Z,77.63
2019-01-30T09:40:31.465Z,79.83
2019-01-30T09:43:00.946Z,77.49
2019-01-30T09:45:30.882Z,79.19
2019-01-30T09:48:00.369Z,78.55
2019-01-30T09:50:30.267Z,79.27
2019-01-30T09:52:59.737Z,76.76
2019-01-30T09:55:28.315Z,77.91
2019-01-30T09:57:57.123Z,77.30
2019-01-30T10:00:34.552Z,77.30
2019-01-30T10:03:03.872Z,76.89
2019-01-30T10:05:32.413Z,76.98
2019-01-30T10:08:00.997Z,78.06
2019-01-30T10:10:37.495Z,77.70
2019-01-30T10:13:06.989Z,75.86
2019-01-30T10:15:37.312Z,76.95
2019-01-30T10:18:06.954Z,73.69
2019-01-30T10:20:37.070Z,75.11
2019-01-30T10:23:05.637Z,75.35
2019-01-30T10:25:34.322Z,75.78
2019-01-30T10:28:03.521Z,73.88
2019-01-30T10:30:34.856Z,69.72
2019-01-30T10:33:04.070Z,74.38
2019-01-30T10:35:33.465Z,72.83
2019-01-30T10:38:03.058Z,72.81
2019-01-30T10:40:32.428Z,72.68
2019-01-30T10:43:00.987Z,72.95
2019-01-30T10:45:29.907Z,72.11
2019-01-30T10:47:58.461Z,74.34
2019-01-30T10:50:28.209Z,70.99
2019-01-30T10:52:57.314Z,70.98
2019-01-30T10:55:27.864Z,69.77
2019-01-30T10:57:58.923Z,69.45
2019-01-30T11:00:36.949Z,68.70
2019-01-30T11:03:06.367Z,70.64
2019-01-30T11:05:34.944Z,69.21
2019-01-30T11:08:03.893Z,67.75
2019-01-30T11:10:33.394Z,67.44
2019-01-30T11:13:02.029Z,69.24
2019-01-30T11:15:31.464Z,64.83
2019-01-30T11:18:00.345Z,64.53
2019-01-30T11:20:30.167Z,64.14
2019-01-30T11:22:59.122Z,63.58
2019-01-30T11:25:30.344Z,62.80
2019-01-30T11:27:58.906Z,63.16
2019-01-30T11:30:27.553Z,63.04
2019-01-30T11:32:56.126Z,61.54
2019-01-30T11:35:28.377Z,61.57
2019-01-30T11:37:56.955Z,60.79
2019-01-30T11:40:26.969Z,60.48
2019-01-30T11:42:55.530Z,60.64
2019-01-30T11:45:26.693Z,62.17
2019-01-30T11:47:55.251Z,63.11
2019-01-30T11:50:23.805Z,63.55
2019-01-30T11:52:52.359Z,62.12
2019-01-30T11:55:23.921Z,63.61
2019-01-30T11:57:52.522Z,61.49
2019-01-30T12:00:32.062Z,62.29
2019-01-30T12:03:00.628Z,63.25
2019-01-30T12:05:29.183Z,62.16
2019-01-30T12:07:57.774Z,62.68
2019-01-30T12:10:26.348Z,62.50
2019-01-30T12:12:55.602Z,62.77
2019-01-30T12:15:24.987Z,61.54
2019-01-30T12:17:53.576Z,61.92
2019-01-30T12:20:22.164Z,63.51
2019-01-30T12:22:50.799Z,63.81
2019-01-30T12:25:19.379Z,63.44
2019-01-30T12:27:50.705Z,63.04
2019-01-30T12:30:20.196Z,62.41
2019-01-30T12:32:48.754Z,63.57
2019-01-30T12:35:17.708Z,63.63
2019-01-30T12:37:46.262Z,62.09
2019-01-30T12:40:16.578Z,61.39
2019-01-30T12:42:45.244Z,61.41
2019-01-30T12:45:17.722Z,59.96
2019-01-30T12:47:46.301Z,60.32
2019-01-30T12:50:15.579Z,60.77
2019-01-30T12:52:44.505Z,59.93
2019-01-30T12:55:13.413Z,61.27
2019-01-30T12:57:43.015Z,61.72
2019-01-30T13:00:18.002Z,62.21
2019-01-30T13:02:46.879Z,61.43
2019-01-30T13:05:16.922Z,63.17
2019-01-30T13:07:46.554Z,61.60
2019-01-30T13:10:15.865Z,60.71
2019-01-30T13:12:45.238Z,60.09
2019-01-30T13:15:16.373Z,58.81
2019-01-30T13:17:46.740Z,58.75
2019-01-30T13:20:19.730Z,59.23
2019-01-30T13:22:49.433Z,58.85
2019-01-30T13:25:25.171Z,60.01
2019-01-30T13:27:54.487Z,61.40
2019-01-30T13:30:26.783Z,60.76
2019-01-30T13:32:56.135Z,61.75
2019-01-30T13:35:25.084Z,62.54
2019-01-30T13:37:54.086Z,62.48
2019-01-30T13:40:28.988Z,62.64
2019-01-30T13:42:58.371Z,62.01
2019-01-30T13:45:28.438Z,63.70
2019-01-30T13:47:57.312Z,63.75
2019-01-30T13:50:26.349Z,64.50
2019-01-30T13:52:55.309Z,64.75
2019-01-30T13:55:23.877Z,65.77
2019-01-30T13:57:53.920Z,65.46
2019-01-30T14:00:27.924Z,66.09
2019-01-30T14:02:56.463Z,66.25
2019-01-30T14:05:26.223Z,66.71
2019-01-30T14:07:55.267Z,67.01
2019-01-30T14:10:24.241Z,66.99
2019-01-30T14:12:52.793Z,67.37
2019-01-30T14:15:22.370Z,67.35
2019-01-30T14:17:50.965Z,67.31
2019-01-30T14:20:19.559Z,66.76
2019-01-30T14:22:49.282Z,66.42
2019-01-30T14:25:18.160Z,66.19
2019-01-30T14:27:46.764Z,66.74
2019-01-30T14:30:24.045Z,66.79
2019-01-30T14:32:52.726Z,66.98
2019-01-30T14:35:22.156Z,66.45
2019-01-30T14:37:50.704Z,65.85
2019-01-30T14:40:20.236Z,65.58
2019-01-30T14:42:48.750Z,65.50
2019-01-30T14:45:18.299Z,65.78
2019-01-30T14:47:48.127Z,66.68
2019-01-30T14:50:19.585Z,66.80
2019-01-30T14:52:48.882Z,66.92
2019-01-30T14:55:19.242Z,66.96
2019-01-30T14:57:48.991Z,67.98
2019-01-30T15:00:20.699Z,67.89
2019-01-30T15:02:50.026Z,67.54
2019-01-30T15:05:22.329Z,67.40
2019-01-30T15:07:51.321Z,67.83
2019-01-30T15:10:21.000Z,68.65
2019-01-30T15:12:50.649Z,68.87
2019-01-30T15:15:21.968Z,68.72
2019-01-30T15:17:50.879Z,68.43
2019-01-30T15:20:28.085Z,68.80
2019-01-30T15:22:57.574Z,68.89
2019-01-30T15:25:26.483Z,68.87
2019-01-30T15:27:55.042Z,68.97
2019-01-30T15:30:35.748Z,69.60
2019-01-30T15:33:04.384Z,69.63
2019-01-30T15:35:34.126Z,68.99
2019-01-30T15:38:05.078Z,68.76
2019-01-30T15:40:34.432Z,68.93
2019-01-30T15:43:03.295Z,69.93
2019-01-30T15:45:32.980Z,69.98
2019-01-30T15:48:02.267Z,69.59
2019-01-30T15:50:32.729Z,70.82
2019-01-30T15:53:03.324Z,70.30
2019-01-30T15:55:33.028Z,69.39
2019-01-30T15:58:06.116Z,69.62
2019-01-30T16:00:44.727Z,69.48
2019-01-30T16:03:14.450Z,69.52
2019-01-30T16:05:45.437Z,69.34
2019-01-30T16:08:15.074Z,70.18
2019-01-30T16:10:44.779Z,70.40
2019-01-30T16:13:13.333Z,70.53
2019-01-30T16:15:45.729Z,70.23
2019-01-30T16:18:14.614Z,70.36
2019-01-30T16:20:43.318Z,70.41
2019-01-30T16:23:12.342Z,71.11
2019-01-30T16:25:40.915Z,70.45
2019-01-30T16:28:09.482Z,70.57
2019-01-30T16:30:38.041Z,70.46
2019-01-30T16:33:06.921Z,70.69
2019-01-30T16:35:35.477Z,71.09
2019-01-30T16:38:04.947Z,71.03
2019-01-30T16:40:33.499Z,70.16
2019-01-30T16:43:02.071Z,70.51
2019-01-30T16:45:30.648Z,70.28
2019-01-30T16:47:59.213Z,70.31
2019-01-30T16:50:27.855Z,70.65
2019-01-30T16:52:56.420Z,70.40
2019-01-30T16:55:25.102Z,70.47
2019-01-30T16:57:53.646Z,70.51
2019-01-30T17:00:24.803Z,70.38
2019-01-30T17:02:53.411Z,70.86
2019-01-30T17:05:21.954Z,70.71
2019-01-30T17:07:50.502Z,71.26
2019-01-30T17:10:19.106Z,71.10
2019-01-30T17:12:47.677Z,70.74
2019-01-30T17:15:21.351Z,70.15
2019-01-30T17:17:49.980Z,70.52
2019-01-30T17:20:20.652Z,70.17
2019-01-30T17:22:49.206Z,70.71
2019-01-30T17:25:17.801Z,70.80
2019-01-30T17:27:46.337Z,71.20
2019-01-30T17:30:20.958Z,71.50
2019-01-30T17:32:49.557Z,71.41
2019-01-30T17:35:18.188Z,71.37
2019-01-30T17:37:46.764Z,71.41
2019-01-30T17:40:17.622Z,71.61
2019-01-30T17:42:46.158Z,71.33
2019-01-30T17:45:15.628Z,71.81
2019-01-30T17:47:44.395Z,71.33
2019-01-30T17:50:15.044Z,71.66
2019-01-30T17:52:43.626Z,71.28
2019-01-30T17:55:12.174Z,71.09
2019-01-30T17:57:40.781Z,71.46
2019-01-30T18:00:24.852Z,71.52
2019-01-30T18:02:53.436Z,71.93
2019-01-30T18:05:22.329Z,71.91
2019-01-30T18:07:50.873Z,71.91
2019-01-30T18:10:19.457Z,71.78
2019-01-30T18:12:48.009Z,71.87
2019-01-30T18:15:16.556Z,71.18
2019-01-30T18:17:45.147Z,71.88
2019-01-30T18:20:14.839Z,71.74
2019-01-30T18:22:44.546Z,72.51
2019-01-30T18:25:14.391Z,72.58
2019-01-30T18:27:43.088Z,72.53
2019-01-30T18:30:13.989Z,72.65
2019-01-30T18:32:42.580Z,72.55
2019-01-30T18:35:11.183Z,72.44
2019-01-30T18:37:39.772Z,73.06
2019-01-30T18:40:11.913Z,72.98
2019-01-30T18:42:41.219Z,72.31
2019-01-30T18:45:12.252Z,72.80
2019-01-30T18:47:41.592Z,72.80
2019-01-30T18:50:13.247Z,72.87
2019-01-30T18:52:42.112Z,73.25
2019-01-30T18:55:11.002Z,73.41
2019-01-30T18:57:39.944Z,73.63
2019-01-30T19:00:13.594Z,74.15
2019-01-30T19:02:42.184Z,73.99
2019-01-30T19:05:10.820Z,74.31
2019-01-30T19:07:39.368Z,74.47
2019-01-30T19:10:10.432Z,74.70
2019-01-30T19:12:39.015Z,74.79
2019-01-30T19:15:10.943Z,75.08
2019-01-30T19:17:39.519Z,75.20
2019-01-30T19:20:11.209Z,75.43
2019-01-30T19:22:39.757Z,76.01
2019-01-30T19:25:08.402Z,76.71
2019-01-30T19:27:36.954Z,76.87
2019-01-30T19:30:08.086Z,76.46
2019-01-30T19:32:36.651Z,76.66
2019-01-30T19:35:05.895Z,76.41
2019-01-30T19:37:34.478Z,76.19
2019-01-30T19:40:03.051Z,77.10
2019-01-30T19:42:32.237Z,77.13
2019-01-30T19:45:00.918Z,76.45
2019-01-30T19:47:29.785Z,76.09
2019-01-30T19:49:58.328Z,76.36
2019-01-30T19:52:27.187Z,76.82
2019-01-30T19:54:55.768Z,76.75
2019-01-30T19:57:24.334Z,76.54
2019-01-30T19:59:52.883Z,76.93
2019-01-30T20:02:21.471Z,77.54
2019-01-30T20:04:50.097Z,77.33
2019-01-30T20:07:18.630Z,77.61
2019-01-30T20:09:47.237Z,78.38
2019-01-30T20:12:15.800Z,78.41
2019-01-30T20:14:44.351Z,78.15
2019-01-30T20:17:12.895Z,78.12
2019-01-30T20:19:41.469Z,78.52
2019-01-30T20:22:10.017Z,78.28
2019-01-30T20:24:38.600Z,78.22
2019-01-30T20:27:07.149Z,77.99
2019-01-30T20:29:35.701Z,78.76
2019-01-30T20:32:04.281Z,78.47
2019-01-30T20:34:33.202Z,78.80
2019-01-30T20:37:01.805Z,78.86
2019-01-30T20:39:30.355Z,79.15
2019-01-30T20:41:58.901Z,79.17
2019-01-30T20:44:27.492Z,79.52
2019-01-30T20:46:56.039Z,79.59
2019-01-30T20:49:24.655Z,79.85
2019-01-30T20:51:53.242Z,79.73
2019-01-30T20:54:21.783Z,79.55
2019-01-30T20:56:50.351Z,79.09
2019-01-30T20:59:19.029Z,79.93
2019-01-30T21:01:47.648Z,79.11
2019-01-30T21:04:16.219Z,79.21
2019-01-30T21:06:44.802Z,79.51
2019-01-30T21:09:13.629Z,79.69
2019-01-30T21:11:42.177Z,79.70
2019-01-30T21:14:10.760Z,79.48
2019-01-30T21:16:39.352Z,79.10
2019-01-30T21:19:07.899Z,79.86
2019-01-30T21:21:36.446Z,79.55
2019-01-30T21:24:05.019Z,78.90
2019-01-30T21:26:33.564Z,79.16
2019-01-30T21:29:02.266Z,78.90
2019-01-30T21:31:30.773Z,78.68
2019-01-30T21:33:59.738Z,79.00
2019-01-30T21:36:28.351Z,78.90
2019-01-30T21:38:56.897Z,78.94
2019-01-30T21:41:25.445Z,79.34
2019-01-30T21:43:54.113Z,79.29
2019-01-30T21:46:23.317Z,78.92
2019-01-30T21:48:51.860Z,78.39
2019-01-30T21:51:20.442Z,78.47
2019-01-30T21:53:48.994Z,78.42
2019-01-30T21:56:17.539Z,78.30
2019-01-30T21:58:46.151Z,77.71
2019-01-30T22:01:14.705Z,77.97
2019-01-30T22:03:43.243Z,78.11
2019-01-30T22:06:11.827Z,78.01
2019-01-30T22:08:40.377Z,77.74
2019-01-30T22:11:08.925Z,77.73
2019-01-30T22:13:37.804Z,77.95
2019-01-30T22:16:06.921Z,77.95
2019-01-30T22:18:35.499Z,78.58
2019-01-30T22:21:04.054Z,78.67
2019-01-30T22:23:32.930Z,78.62
2019-01-30T22:26:01.501Z,78.79
2019-01-30T22:28:30.039Z,78.79
2019-01-30T22:30:58.618Z,79.13
2019-01-30T22:33:27.170Z,79.37
2019-01-30T22:35:55.748Z,78.90
2019-01-30T22:38:24.435Z,78.97
2019-01-30T22:40:52.979Z,79.67
2019-01-30T22:43:21.526Z,79.39
2019-01-30T22:45:50.606Z,79.16
2019-01-30T22:48:19.317Z,79.20
2019-01-30T22:50:47.892Z,79.79
2019-01-30T22:53:16.442Z,79.74
2019-01-30T22:55:45.022Z,79.97
2019-01-30T22:58:13.565Z,80.56
2019-01-30T23:01:09.314Z,80.11
2019-01-30T23:04:11.697Z,80.06
2019-01-30T23:07:01.196Z,81.10
2019-01-30T23:10:20.233Z,81.50
2019-01-30T23:13:14.134Z,81.50
2019-01-30T23:16:06.289Z,81.98
2019-01-30T23:19:20.221Z,81.70
2019-01-30T23:22:24.337Z,81.47
2019-01-30T23:25:48.077Z,81.95
2019-01-30T23:28:48.723Z,81.92
2019-01-30T23:31:56.759Z,81.83
2019-01-30T23:35:34.003Z,81.59
2019-01-30T23:38:34.354Z,81.83
2019-01-30T23:41:25.903Z,81.90
2019-01-30T23:44:17.748Z,82.12
2019-01-30T23:47:29.728Z,81.78
2019-01-30T23:50:36.123Z,81.57
2019-01-30T23:53:40.306Z,80.91
2019-01-30T23:56:38.932Z,81.10
2019-01-30T23:59:57.966Z,81.17
